Swanbourne, Western Australia

9:54 AM AWST on April 02, 2015 (GMT +0800)
woodlands | | Change Station
CLOSE
Current Station
Personal Weather Station
Location: Woodlands, WESTERN AUSTRALIA
Elevation: 43 ft
Nearby Weather Stations

Elev 43 ft 31.91 °S, 115.79 °E | Updated 3 minutes ago

Partly Cloudy
Partly Cloudy
72.2 °F
Feels Like 77 °F
N
0.0
Wind Variable Wind from North
Gusts 10.0 mph

Today
High -- | Low -- °F
--% Chance of Precip.
Yesterday
High -- | Low -- °F
Precip. -- in
6:28 AM 6:12 PM
Waxing Gibbous, 95% visible
Pressure 30.15 in
Visibility 6.2 miles
Clouds Few 4000 ft
Heat Index 77 °F
Dew Point 55 °F
Humidity 56%
Rainfall 0.00 in
Snow Depth Not available.
UV 4 out of 12
Pollen Not available.
Air Quality Not available.
Flu Activity Not available.
METAR YPPH 020130Z 06011KT 9999 FEW040 21/10 Q1021

More Conditions Fewer Conditions

Pressure 30.15 in
Visibility 6.2 miles
Clouds Few 4000 ft
Heat Index 77 °F
Dew Point 55 °F
Humidity 56%
Rainfall 0.00 in
Snow Depth Not available.
UV 4 out of 12
Pollen Not available.
Air Quality Not available.
Flu Activity Not available.
METAR YPPH 020130Z 06011KT 9999 FEW040 21/10 Q1021

More Conditions Fewer Conditions

10-Day Weather Forecast

Almanac

Astronomy

Apr. 02, 2015 Rise Set
Actual Time
Civil Twilight
Nautical Twilight
Astronomical Twilight
Moon
Length of Visible Light
Length of Day
Tomorrow will be .
, % of the Moon is Illuminated

Today's Extremes

Country Highs Country Lows

Community

WunderPhotos

Upload Photos

1,810,150 photos uploaded!

WunderBlogs® & News

Nearby

Air Quality

  Air Quality AQ Index Pollutant
Not available.

Snow Depth

Station Depth Elevation

Earthquake Activity

City Distance Mag. Time & Date
Minimum magnitude displayed is 2.5.

Coastal Water Temperatures

Place Temperature

Stations

Nearby Weather Stations

Station Location Temp. Windchill Dew Point Humidity Wind Precip. Elev Updated Type